sensor_id;sensor_type;location;lat;lon;timestamp;pressure;altitude;pressure_sealevel;temperature;humidity
35507;BME280;36461;52.018;21.036;2023-08-31T06:59:06;99550.22;;;19.39;81.29
35507;BME280;36461;52.018;21.036;2023-08-31T07:01:34;99547.54;;;19.22;80.85
35507;BME280;36461;52.018;21.036;2023-08-31T07:04:03;99549.41;;;19.14;80.87
35507;BME280;36461;52.018;21.036;2023-08-31T07:06:34;99552.61;;;18.98;80.17
35507;BME280;36461;52.018;21.036;2023-08-31T07:09:03;99557.68;;;18.78;80.10
35507;BME280;36461;52.018;21.036;2023-08-31T07:11:34;99561.48;;;18.68;80.39
35507;BME280;36461;52.018;21.036;2023-08-31T07:14:02;99562.10;;;18.69;80.77
35507;BME280;36461;52.018;21.036;2023-08-31T07:16:31;99565.92;;;18.72;80.58
35507;BME280;36461;52.018;21.036;2023-08-31T07:18:59;99561.91;;;18.73;80.66
35507;BME280;36461;52.018;21.036;2023-08-31T07:21:28;99564.55;;;18.78;80.89
35507;BME280;36461;52.018;21.036;2023-08-31T07:23:56;99562.14;;;18.84;80.88
35507;BME280;36461;52.018;21.036;2023-08-31T07:26:25;99566.69;;;18.87;80.53
35507;BME280;36461;52.018;21.036;2023-08-31T07:28:53;99570.52;;;18.91;80.53
35507;BME280;36461;52.018;21.036;2023-08-31T07:31:21;99571.67;;;18.97;80.82
35507;BME280;36461;52.018;21.036;2023-08-31T07:33:49;99573.98;;;18.94;80.22
35507;BME280;36461;52.018;21.036;2023-08-31T07:36:18;99575.27;;;18.84;80.26
35507;BME280;36461;52.018;21.036;2023-08-31T07:38:46;99571.17;;;18.83;80.41
35507;BME280;36461;52.018;21.036;2023-08-31T07:41:14;99570.30;;;18.89;80.50
35507;BME280;36461;52.018;21.036;2023-08-31T07:43:42;99572.61;;;18.98;80.01
35507;BME280;36461;52.018;21.036;2023-08-31T07:46:30;99570.30;;;19.21;80.01
35507;BME280;36461;52.018;21.036;2023-08-31T07:48:59;99571.11;;;19.43;79.91
35507;BME280;36461;52.018;21.036;2023-08-31T07:51:27;99568.56;;;19.61;79.60
35507;BME280;36461;52.018;21.036;2023-08-31T07:53:55;99572.06;;;19.84;79.60
35507;BME280;36461;52.018;21.036;2023-08-31T07:56:23;99577.93;;;20.01;78.37
35507;BME280;36461;52.018;21.036;2023-08-31T07:58:52;99583.48;;;20.10;77.64
35507;BME280;36461;52.018;21.036;2023-08-31T08:01:20;99587.48;;;20.18;77.34
35507;BME280;36461;52.018;21.036;2023-08-31T08:03:48;99588.84;;;20.27;76.93
35507;BME280;36461;52.018;21.036;2023-08-31T08:06:17;99589.05;;;20.29;76.10
35507;BME280;36461;52.018;21.036;2023-08-31T08:08:45;99595.20;;;20.23;75.86
35507;BME280;36461;52.018;21.036;2023-08-31T08:11:14;99597.05;;;20.19;75.21
35507;BME280;36461;52.018;21.036;2023-08-31T08:13:42;99596.39;;;20.09;74.82
35507;BME280;36461;52.018;21.036;2023-08-31T08:16:10;99592.55;;;19.92;73.51
35507;BME280;36461;52.018;21.036;2023-08-31T08:18:38;99597.08;;;19.77;74.10
35507;BME280;36461;52.018;21.036;2023-08-31T08:21:07;99599.74;;;19.83;73.84
35507;BME280;36461;52.018;21.036;2023-08-31T08:23:35;99598.38;;;19.96;73.73
35507;BME280;36461;52.018;21.036;2023-08-31T08:26:03;99601.30;;;20.07;73.75
35507;BME280;36461;52.018;21.036;2023-08-31T08:28:34;99598.41;;;20.16;73.28
35507;BME280;36461;52.018;21.036;2023-08-31T08:31:03;99604.38;;;20.14;72.65
35507;BME280;36461;52.018;21.036;2023-08-31T08:33:31;99606.30;;;20.06;72.45
35507;BME280;36461;52.018;21.036;2023-08-31T08:36:00;99605.88;;;20.03;72.07
35507;BME280;36461;52.018;21.036;2023-08-31T08:38:28;99606.20;;;20.01;71.80
35507;BME280;36461;52.018;21.036;2023-08-31T08:40:57;99607.80;;;20.03;72.25
35507;BME280;36461;52.018;21.036;2023-08-31T08:43:26;99605.44;;;20.08;71.74
35507;BME280;36461;52.018;21.036;2023-08-31T08:45:58;99607.68;;;20.08;71.40
35507;BME280;36461;52.018;21.036;2023-08-31T08:48:28;99605.63;;;20.12;71.33
35507;BME280;36461;52.018;21.036;2023-08-31T08:50:57;99611.33;;;20.19;71.19
35507;BME280;36461;52.018;21.036;2023-08-31T08:53:25;99613.86;;;20.41;71.13
35507;BME280;36461;52.018;21.036;2023-08-31T08:55:53;99617.25;;;20.65;69.78
35507;BME280;36461;52.018;21.036;2023-08-31T08:58:22;99618.23;;;20.91;69.54
35507;BME280;36461;52.018;21.036;2023-08-31T09:00:52;99618.11;;;21.12;68.75
35507;BME280;36461;52.018;21.036;2023-08-31T09:03:23;99620.87;;;21.38;68.49
35507;BME280;36461;52.018;21.036;2023-08-31T09:05:52;99620.83;;;21.61;67.84
35507;BME280;36461;52.018;21.036;2023-08-31T09:08:27;99615.66;;;21.83;67.96
35507;BME280;36461;52.018;21.036;2023-08-31T09:10:56;99617.52;;;22.03;67.22
35507;BME280;36461;52.018;21.036;2023-08-31T09:13:29;99617.58;;;22.12;66.19
35507;BME280;36461;52.018;21.036;2023-08-31T09:15:59;99615.98;;;22.20;66.25
35507;BME280;36461;52.018;21.036;2023-08-31T09:18:29;99619.09;;;22.30;66.03
35507;BME280;36461;52.018;21.036;2023-08-31T09:20:59;99616.73;;;22.31;64.57
35507;BME280;36461;52.018;21.036;2023-08-31T09:23:28;99622.73;;;22.31;64.36
35507;BME280;36461;52.018;21.036;2023-08-31T09:25:57;99623.98;;;22.38;65.04
35507;BME280;36461;52.018;21.036;2023-08-31T09:28:27;99631.52;;;22.52;65.28
35507;BME280;36461;52.018;21.036;2023-08-31T09:31:06;99635.10;;;22.49;63.89
35507;BME280;36461;52.018;21.036;2023-08-31T09:33:35;99637.10;;;22.47;63.95
35507;BME280;36461;52.018;21.036;2023-08-31T09:36:07;99638.52;;;22.47;63.83
35507;BME280;36461;52.018;21.036;2023-08-31T09:38:44;99641.63;;;22.40;63.58
35507;BME280;36461;52.018;21.036;2023-08-31T09:41:13;99637.66;;;22.31;63.46
35507;BME280;36461;52.018;21.036;2023-08-31T09:43:43;99635.92;;;22.19;63.61
35507;BME280;36461;52.018;21.036;2023-08-31T09:46:11;99642.27;;;22.13;63.27
35507;BME280;36461;52.018;21.036;2023-08-31T09:48:42;99650.91;;;22.10;63.80
35507;BME280;36461;52.018;21.036;2023-08-31T09:51:10;99655.85;;;22.00;63.41
35507;BME280;36461;52.018;21.036;2023-08-31T09:53:39;99652.80;;;21.87;62.96
35507;BME280;36461;52.018;21.036;2023-08-31T09:56:13;99658.11;;;21.92;63.02
35507;BME280;36461;52.018;21.036;2023-08-31T09:58:42;99654.17;;;22.09;62.60
35507;BME280;36461;52.018;21.036;2023-08-31T10:01:10;99658.73;;;22.18;62.40
35507;BME280;36461;52.018;21.036;2023-08-31T10:03:54;99662.16;;;22.08;62.28
35507;BME280;36461;52.018;21.036;2023-08-31T10:06:22;99664.20;;;22.03;62.39
35507;BME280;36461;52.018;21.036;2023-08-31T10:08:51;99663.77;;;22.04;62.33
35507;BME280;36461;52.018;21.036;2023-08-31T10:11:21;99664.87;;;21.98;61.92
35507;BME280;36461;52.018;21.036;2023-08-31T10:13:50;99663.77;;;21.88;62.03
35507;BME280;36461;52.018;21.036;2023-08-31T10:16:19;99663.45;;;21.86;62.06
35507;BME280;36461;52.018;21.036;2023-08-31T10:18:48;99659.52;;;21.87;62.53
35507;BME280;36461;52.018;21.036;2023-08-31T10:21:17;99660.48;;;21.91;62.32
35507;BME280;36461;52.018;21.036;2023-08-31T10:23:49;99660.84;;;22.07;62.65
35507;BME280;36461;52.018;21.036;2023-08-31T10:26:29;99656.55;;;22.25;61.63
35507;BME280;36461;52.018;21.036;2023-08-31T10:28:59;99658.61;;;22.39;61.93
35507;BME280;36461;52.018;21.036;2023-08-31T10:31:32;99655.37;;;22.63;61.87
35507;BME280;36461;52.018;21.036;2023-08-31T10:34:05;99656.00;;;22.82;61.48
35507;BME280;36461;52.018;21.036;2023-08-31T10:39:11;99657.29;;;23.07;61.74
35507;BME280;36461;52.018;21.036;2023-08-31T10:41:42;99663.50;;;23.12;60.07
35507;BME280;36461;52.018;21.036;2023-08-31T10:44:24;99664.60;;;23.14;59.93
35507;BME280;36461;52.018;21.036;2023-08-31T10:46:53;99667.74;;;23.24;60.02
35507;BME280;36461;52.018;21.036;2023-08-31T10:49:23;99670.23;;;23.33;60.16
35507;BME280;36461;52.018;21.036;2023-08-31T10:51:56;99674.80;;;23.40;59.76
35507;BME280;36461;52.018;21.036;2023-08-31T10:59:44;99674.86;;;23.21;59.38
35507;BME280;36461;52.018;21.036;2023-08-31T11:02:34;99676.06;;;23.11;59.43
35507;BME280;36461;52.018;21.036;2023-08-31T11:07:40;99674.50;;;23.23;60.01
35507;BME280;36461;52.018;21.036;2023-08-31T11:10:14;99677.08;;;23.39;60.08
35507;BME280;36461;52.018;21.036;2023-08-31T11:12:45;99679.09;;;23.60;59.63
35507;BME280;36461;52.018;21.036;2023-08-31T11:15:19;99677.36;;;23.77;58.77
35507;BME280;36461;52.018;21.036;2023-08-31T11:17:49;99680.09;;;23.91;57.85
35507;BME280;36461;52.018;21.036;2023-08-31T11:20:20;99680.59;;;24.02;57.51
35507;BME280;36461;52.018;21.036;2023-08-31T11:22:50;99678.91;;;24.05;57.34
35507;BME280;36461;52.018;21.036;2023-08-31T11:25:21;99679.70;;;24.09;56.73
35507;BME280;36461;52.018;21.036;2023-08-31T11:27:57;99677.91;;;24.17;56.62
35507;BME280;36461;52.018;21.036;2023-08-31T11:30:26;99676.47;;;24.24;55.99
35507;BME280;36461;52.018;21.036;2023-08-31T11:32:55;99677.28;;;24.21;55.89
35507;BME280;36461;52.018;21.036;2023-08-31T11:35:23;99679.50;;;24.13;56.83
35507;BME280;36461;52.018;21.036;2023-08-31T11:37:57;99676.38;;;24.05;56.20
35507;BME280;36461;52.018;21.036;2023-08-31T11:40:28;99673.52;;;24.01;56.15
35507;BME280;36461;52.018;21.036;2023-08-31T11:42:58;99678.49;;;24.11;56.14
35507;BME280;36461;52.018;21.036;2023-08-31T11:45:31;99675.59;;;24.34;56.26
35507;BME280;36461;52.018;21.036;2023-08-31T11:48:00;99670.93;;;24.56;56.26
35507;BME280;36461;52.018;21.036;2023-08-31T11:50:29;99670.88;;;24.74;56.07
35507;BME280;36461;52.018;21.036;2023-08-31T11:52:59;99672.27;;;24.88;55.88
35507;BME280;36461;52.018;21.036;2023-08-31T11:55:27;99671.52;;;24.97;54.55
35507;BME280;36461;52.018;21.036;2023-08-31T11:57:56;99671.69;;;24.87;53.41
35507;BME280;36461;52.018;21.036;2023-08-31T12:00:25;99671.17;;;24.59;53.17
35507;BME280;36461;52.018;21.036;2023-08-31T12:02:58;99672.24;;;24.32;53.54
35507;BME280;36461;52.018;21.036;2023-08-31T12:05:28;99671.22;;;24.18;53.97
35507;BME280;36461;52.018;21.036;2023-08-31T12:07:59;99666.75;;;24.01;53.74
35507;BME280;36461;52.018;21.036;2023-08-31T12:10:27;99669.27;;;23.82;54.66
35507;BME280;36461;52.018;21.036;2023-08-31T12:13:11;99664.55;;;23.73;55.27
35507;BME280;36461;52.018;21.036;2023-08-31T12:15:40;99663.73;;;23.71;55.48
35507;BME280;36461;52.018;21.036;2023-08-31T12:18:12;99667.63;;;23.68;55.30
35507;BME280;36461;52.018;21.036;2023-08-31T12:23:13;99663.60;;;23.62;54.58
35507;BME280;36461;52.018;21.036;2023-08-31T12:25:50;99662.08;;;23.66;54.87
35507;BME280;36461;52.018;21.036;2023-08-31T12:28:21;99659.30;;;23.69;54.41
35507;BME280;36461;52.018;21.036;2023-08-31T12:30:51;99658.02;;;23.66;54.19
35507;BME280;36461;52.018;21.036;2023-08-31T12:33:20;99657.92;;;23.61;54.39
35507;BME280;36461;52.018;21.036;2023-08-31T12:35:49;99656.42;;;23.64;54.26
35507;BME280;36461;52.018;21.036;2023-08-31T12:38:18;99655.63;;;23.70;54.16
35507;BME280;36461;52.018;21.036;2023-08-31T12:40:47;99655.26;;;23.79;54.61
35507;BME280;36461;52.018;21.036;2023-08-31T12:43:16;99655.19;;;23.76;54.49
35507;BME280;36461;52.018;21.036;2023-08-31T12:45:45;99647.44;;;23.67;54.44
35507;BME280;36461;52.018;21.036;2023-08-31T12:48:13;99645.24;;;23.66;54.29
35507;BME280;36461;52.018;21.036;2023-08-31T12:50:41;99643.27;;;23.59;54.31
35507;BME280;36461;52.018;21.036;2023-08-31T12:53:10;99639.43;;;23.54;54.30
35507;BME280;36461;52.018;21.036;2023-08-31T12:55:39;99639.48;;;23.62;54.24
35507;BME280;36461;52.018;21.036;2023-08-31T12:58:07;99634.87;;;23.82;55.52
35507;BME280;36461;52.018;21.036;2023-08-31T13:00:36;99642.77;;;23.80;56.14
35507;BME280;36461;52.018;21.036;2023-08-31T13:03:04;99639.73;;;23.81;55.45
35507;BME280;36461;52.018;21.036;2023-08-31T13:05:39;99638.47;;;23.90;55.19
35507;BME280;36461;52.018;21.036;2023-08-31T13:08:08;99642.39;;;23.85;54.10
35507;BME280;36461;52.018;21.036;2023-08-31T13:10:40;99646.48;;;23.84;54.21
35507;BME280;36461;52.018;21.036;2023-08-31T13:13:09;99645.31;;;23.89;53.59
35507;BME280;36461;52.018;21.036;2023-08-31T13:15:38;99646.66;;;23.95;53.71
35507;BME280;36461;52.018;21.036;2023-08-31T13:18:06;99647.88;;;23.93;53.44
35507;BME280;36461;52.018;21.036;2023-08-31T13:20:34;99641.86;;;23.81;53.63
35507;BME280;36461;52.018;21.036;2023-08-31T13:23:04;99639.44;;;23.78;53.95
35507;BME280;36461;52.018;21.036;2023-08-31T13:25:32;99646.84;;;23.66;53.72
35507;BME280;36461;52.018;21.036;2023-08-31T13:28:01;99645.60;;;23.54;53.85
35507;BME280;36461;52.018;21.036;2023-08-31T13:30:29;99644.59;;;23.44;53.48
35507;BME280;36461;52.018;21.036;2023-08-31T13:33:00;99647.24;;;23.49;53.36
35507;BME280;36461;52.018;21.036;2023-08-31T13:35:28;99652.74;;;23.64;53.87
35507;BME280;36461;52.018;21.036;2023-08-31T13:37:56;99651.00;;;23.62;53.50
35507;BME280;36461;52.018;21.036;2023-08-31T13:40:25;99650.22;;;23.44;53.75
35507;BME280;36461;52.018;21.036;2023-08-31T13:42:58;99658.48;;;23.30;53.99
35507;BME280;36461;52.018;21.036;2023-08-31T13:45:31;99657.86;;;23.18;53.99
35507;BME280;36461;52.018;21.036;2023-08-31T13:48:00;99658.05;;;23.08;53.80
35507;BME280;36461;52.018;21.036;2023-08-31T13:50:29;99658.26;;;22.99;54.18
35507;BME280;36461;52.018;21.036;2023-08-31T13:52:58;99664.32;;;22.94;53.96
35507;BME280;36461;52.018;21.036;2023-08-31T13:55:26;99665.73;;;22.94;53.89
35507;BME280;36461;52.018;21.036;2023-08-31T13:57:55;99672.57;;;22.99;54.77
35507;BME280;36461;52.018;21.036;2023-08-31T14:00:23;99670.15;;;22.98;55.06
35507;BME280;36461;52.018;21.036;2023-08-31T14:02:51;99670.88;;;22.92;54.78
35507;BME280;36461;52.018;21.036;2023-08-31T14:05:20;99672.25;;;22.84;54.53
35507;BME280;36461;52.018;21.036;2023-08-31T14:07:48;99671.66;;;22.86;54.71
35507;BME280;36461;52.018;21.036;2023-08-31T14:10:16;99671.28;;;23.02;55.10
35507;BME280;36461;52.018;21.036;2023-08-31T14:12:46;99673.05;;;23.14;54.66
35507;BME280;36461;52.018;21.036;2023-08-31T14:15:16;99673.26;;;23.07;54.17
35507;BME280;36461;52.018;21.036;2023-08-31T14:17:44;99677.38;;;22.97;54.49
35507;BME280;36461;52.018;21.036;2023-08-31T14:20:13;99690.41;;;22.84;54.87
35507;BME280;36461;52.018;21.036;2023-08-31T14:22:41;99719.96;;;22.71;54.93
35507;BME280;36461;52.018;21.036;2023-08-31T14:25:12;99737.72;;;22.47;53.80
35507;BME280;36461;52.018;21.036;2023-08-31T14:27:41;99757.96;;;22.10;53.52
35507;BME280;36461;52.018;21.036;2023-08-31T14:30:09;99776.42;;;21.66;53.28
35507;BME280;36461;52.018;21.036;2023-08-31T14:32:38;99789.39;;;21.19;53.65
35507;BME280;36461;52.018;21.036;2023-08-31T14:35:07;99782.91;;;20.75;55.54
35507;BME280;36461;52.018;21.036;2023-08-31T14:37:35;99791.92;;;20.40;56.88
35507;BME280;36461;52.018;21.036;2023-08-31T14:40:04;99802.41;;;19.98;57.93
35507;BME280;36461;52.018;21.036;2023-08-31T14:42:36;99802.30;;;19.64;59.60
35507;BME280;36461;52.018;21.036;2023-08-31T14:45:04;99792.44;;;19.24;61.33
35507;BME280;36461;52.018;21.036;2023-08-31T14:47:33;99789.07;;;18.90;62.46
35507;BME280;36461;52.018;21.036;2023-08-31T14:50:01;99789.60;;;18.69;63.19
35507;BME280;36461;52.018;21.036;2023-08-31T14:52:29;99793.39;;;18.51;63.64
35507;BME280;36461;52.018;21.036;2023-08-31T14:54:58;99800.70;;;18.40;64.64
35507;BME280;36461;52.018;21.036;2023-08-31T14:57:26;99785.67;;;18.32;65.16
35507;BME280;36461;52.018;21.036;2023-08-31T14:59:54;99776.94;;;18.29;65.79
35507;BME280;36461;52.018;21.036;2023-08-31T15:02:22;99774.21;;;18.26;66.15
35507;BME280;36461;52.018;21.036;2023-08-31T15:04:50;99771.09;;;18.28;66.77
35507;BME280;36461;52.018;21.036;2023-08-31T15:07:19;99772.94;;;18.29;67.33
35507;BME280;36461;52.018;21.036;2023-08-31T15:09:47;99779.52;;;18.40;68.19
35507;BME280;36461;52.018;21.036;2023-08-31T15:12:16;99790.10;;;18.50;68.53
35507;BME280;36461;52.018;21.036;2023-08-31T15:14:44;99794.02;;;18.59;68.72
35507;BME280;36461;52.018;21.036;2023-08-31T15:17:12;99804.74;;;18.66;69.03
35507;BME280;36461;52.018;21.036;2023-08-31T15:19:42;99805.70;;;18.71;69.54
35507;BME280;36461;52.018;21.036;2023-08-31T15:22:10;99807.73;;;18.70;69.41
35507;BME280;36461;52.018;21.036;2023-08-31T15:24:38;99805.63;;;18.60;69.40
35507;BME280;36461;52.018;21.036;2023-08-31T15:27:10;99800.92;;;18.49;69.56
35507;BME280;36461;52.018;21.036;2023-08-31T15:29:38;99793.00;;;18.40;69.86
35507;BME280;36461;52.018;21.036;2023-08-31T15:32:07;99797.42;;;18.39;70.58
35507;BME280;36461;52.018;21.036;2023-08-31T15:34:36;99801.31;;;18.38;70.73
35507;BME280;36461;52.018;21.036;2023-08-31T15:37:05;99807.35;;;18.35;71.00
35507;BME280;36461;52.018;21.036;2023-08-31T15:39:33;99809.18;;;18.29;71.14
35507;BME280;36461;52.018;21.036;2023-08-31T15:42:01;99809.96;;;18.21;71.44
35507;BME280;36461;52.018;21.036;2023-08-31T15:44:31;99808.63;;;18.22;71.83
35507;BME280;36461;52.018;21.036;2023-08-31T15:47:01;99809.71;;;18.24;72.04
35507;BME280;36461;52.018;21.036;2023-08-31T15:49:31;99809.75;;;18.29;72.60
35507;BME280;36461;52.018;21.036;2023-08-31T15:51:59;99814.27;;;18.34;72.80
35507;BME280;36461;52.018;21.036;2023-08-31T15:54:29;99816.98;;;18.33;73.00
35507;BME280;36461;52.018;21.036;2023-08-31T15:56:57;99823.33;;;18.35;73.50
35507;BME280;36461;52.018;21.036;2023-08-31T15:59:25;99826.34;;;18.35;73.55
35507;BME280;36461;52.018;21.036;2023-08-31T16:01:54;99825.50;;;18.34;73.81
35507;BME280;36461;52.018;21.036;2023-08-31T16:04:22;99822.14;;;18.37;74.04
35507;BME280;36461;52.018;21.036;2023-08-31T16:06:51;99821.58;;;18.35;74.25
35507;BME280;36461;52.018;21.036;2023-08-31T16:09:19;99819.71;;;18.41;74.75
35507;BME280;36461;52.018;21.036;2023-08-31T16:11:48;99820.64;;;18.45;74.77
35507;BME280;36461;52.018;21.036;2023-08-31T16:14:16;99818.70;;;18.45;74.95
35507;BME280;36461;52.018;21.036;2023-08-31T16:16:44;99817.66;;;18.48;75.20
35507;BME280;36461;52.018;21.036;2023-08-31T16:19:12;99817.20;;;18.49;75.15
35507;BME280;36461;52.018;21.036;2023-08-31T16:21:40;99813.75;;;18.48;75.35
35507;BME280;36461;52.018;21.036;2023-08-31T16:24:09;99813.80;;;18.43;75.59
35507;BME280;36461;52.018;21.036;2023-08-31T16:26:38;99814.09;;;18.39;75.99
35507;BME280;36461;52.018;21.036;2023-08-31T16:29:06;99811.77;;;18.35;76.18
35507;BME280;36461;52.018;21.036;2023-08-31T16:31:35;99810.34;;;18.33;76.18
35507;BME280;36461;52.018;21.036;2023-08-31T16:34:03;99813.91;;;18.29;76.37
35507;BME280;36461;52.018;21.036;2023-08-31T16:36:31;99816.89;;;18.27;76.47
35507;BME280;36461;52.018;21.036;2023-08-31T16:39:00;99814.31;;;18.26;76.69
35507;BME280;36461;52.018;21.036;2023-08-31T16:41:28;99819.38;;;18.24;76.81
35507;BME280;36461;52.018;21.036;2023-08-31T16:43:56;99825.04;;;18.23;77.16
35507;BME280;36461;52.018;21.036;2023-08-31T16:46:25;99830.04;;;18.24;77.41
35507;BME280;36461;52.018;21.036;2023-08-31T16:48:53;99832.23;;;18.25;77.49
35507;BME280;36461;52.018;21.036;2023-08-31T16:51:21;99837.08;;;18.29;77.47
35507;BME280;36461;52.018;21.036;2023-08-31T16:53:50;99838.48;;;18.34;77.69
35507;BME280;36461;52.018;21.036;2023-08-31T16:56:18;99844.41;;;18.32;77.91
35507;BME280;36461;52.018;21.036;2023-08-31T16:58:46;99845.02;;;18.25;77.93
35507;BME280;36461;52.018;21.036;2023-08-31T17:01:15;99851.35;;;18.16;78.03
35507;BME280;36461;52.018;21.036;2023-08-31T17:03:43;99858.21;;;18.03;78.12
35507;BME280;36461;52.018;21.036;2023-08-31T17:06:12;99858.67;;;17.91;78.43
35507;BME280;36461;52.018;21.036;2023-08-31T17:08:40;99865.42;;;17.80;78.83
35507;BME280;36461;52.018;21.036;2023-08-31T17:11:08;99867.38;;;17.67;79.06
35507;BME280;36461;52.018;21.036;2023-08-31T17:13:39;99870.34;;;17.54;79.23
35507;BME280;36461;52.018;21.036;2023-08-31T17:16:09;99870.40;;;17.41;79.52
35507;BME280;36461;52.018;21.036;2023-08-31T17:18:38;99872.66;;;17.25;79.81
35507;BME280;36461;52.018;21.036;2023-08-31T17:21:06;99871.09;;;17.13;79.94
35507;BME280;36461;52.018;21.036;2023-08-31T17:23:35;99871.58;;;17.00;80.35
35507;BME280;36461;52.018;21.036;2023-08-31T17:26:04;99872.70;;;16.88;80.81
35507;BME280;36461;52.018;21.036;2023-08-31T17:28:32;99877.20;;;16.78;81.21
35507;BME280;36461;52.018;21.036;2023-08-31T17:31:00;99876.41;;;16.66;81.32
35507;BME280;36461;52.018;21.036;2023-08-31T17:33:28;99883.60;;;16.55;81.69
35507;BME280;36461;52.018;21.036;2023-08-31T17:35:57;99888.20;;;16.46;82.02
35507;BME280;36461;52.018;21.036;2023-08-31T17:38:25;99886.95;;;16.38;82.36
35507;BME280;36461;52.018;21.036;2023-08-31T17:40:54;99890.84;;;16.29;82.72
35507;BME280;36461;52.018;21.036;2023-08-31T17:43:22;99899.21;;;16.21;82.90
35507;BME280;36461;52.018;21.036;2023-08-31T17:45:50;99902.11;;;16.11;83.11
35507;BME280;36461;52.018;21.036;2023-08-31T17:48:19;99906.29;;;16.03;83.29
35507;BME280;36461;52.018;21.036;2023-08-31T17:50:47;99909.63;;;15.94;83.72
35507;BME280;36461;52.018;21.036;2023-08-31T17:53:15;99912.68;;;15.87;84.04
35507;BME280;36461;52.018;21.036;2023-08-31T17:55:45;99912.25;;;15.79;84.12
35507;BME280;36461;52.018;21.036;2023-08-31T17:58:13;99912.55;;;15.71;84.43
35507;BME280;36461;52.018;21.036;2023-08-31T18:00:42;99912.91;;;15.62;84.81
35507;BME280;36461;52.018;21.036;2023-08-31T18:03:11;99920.08;;;15.56;85.13
35507;BME280;36461;52.018;21.036;2023-08-31T18:05:51;99924.38;;;15.49;85.30
35507;BME280;36461;52.018;21.036;2023-08-31T18:08:20;99930.06;;;15.41;85.54
35507;BME280;36461;52.018;21.036;2023-08-31T18:10:54;99935.16;;;15.34;85.74
35507;BME280;36461;52.018;21.036;2023-08-31T18:13:22;99932.50;;;15.29;85.83
35507;BME280;36461;52.018;21.036;2023-08-31T18:15:51;99939.80;;;15.23;85.97
35507;BME280;36461;52.018;21.036;2023-08-31T18:18:20;99936.92;;;15.16;86.12
35507;BME280;36461;52.018;21.036;2023-08-31T18:20:49;99938.25;;;15.11;86.38
35507;BME280;36461;52.018;21.036;2023-08-31T18:23:17;99943.92;;;15.06;86.74
35507;BME280;36461;52.018;21.036;2023-08-31T18:25:46;99943.72;;;15.01;86.80
35507;BME280;36461;52.018;21.036;2023-08-31T18:28:15;99949.86;;;14.94;86.98
35507;BME280;36461;52.018;21.036;2023-08-31T18:30:56;99948.23;;;14.86;86.77
35507;BME280;36461;52.018;21.036;2023-08-31T18:33:26;99951.81;;;14.78;87.07
35507;BME280;36461;52.018;21.036;2023-08-31T18:35:56;99952.49;;;14.72;87.33
35507;BME280;36461;52.018;21.036;2023-08-31T18:38:25;99955.81;;;14.66;87.56
35507;BME280;36461;52.018;21.036;2023-08-31T18:40:54;99957.69;;;14.60;87.79
35507;BME280;36461;52.018;21.036;2023-08-31T18:43:24;99954.63;;;14.55;87.99
35507;BME280;36461;52.018;21.036;2023-08-31T18:45:53;99959.34;;;14.52;88.13
35507;BME280;36461;52.018;21.036;2023-08-31T18:48:22;99959.94;;;14.48;88.46
35507;BME280;36461;52.018;21.036;2023-08-31T18:50:58;99960.16;;;14.43;88.57
35507;BME280;36461;52.018;21.036;2023-08-31T18:53:27;99957.09;;;14.39;88.48
35507;BME280;36461;52.018;21.036;2023-08-31T18:56:00;99960.52;;;14.33;88.69
35507;BME280;36461;52.018;21.036;2023-08-31T18:58:30;99963.59;;;14.28;88.79
35507;BME280;36461;52.018;21.036;2023-08-31T19:00:58;99964.02;;;14.24;89.06
35507;BME280;36461;52.018;21.036;2023-08-31T19:03:28;99964.77;;;14.19;89.10
35507;BME280;36461;52.018;21.036;2023-08-31T19:05:57;99962.80;;;14.14;89.20
35507;BME280;36461;52.018;21.036;2023-08-31T19:08:25;99963.13;;;14.11;89.61
35507;BME280;36461;52.018;21.036;2023-08-31T19:10:54;99963.46;;;14.08;89.62
35507;BME280;36461;52.018;21.036;2023-08-31T19:13:22;99965.90;;;14.04;89.86
35507;BME280;36461;52.018;21.036;2023-08-31T19:15:50;99961.15;;;13.99;89.84
35507;BME280;36461;52.018;21.036;2023-08-31T19:18:18;99963.84;;;13.94;89.91
35507;BME280;36461;52.018;21.036;2023-08-31T19:20:47;99962.48;;;13.90;90.20
35507;BME280;36461;52.018;21.036;2023-08-31T19:23:15;99964.65;;;13.85;90.27
35507;BME280;36461;52.018;21.036;2023-08-31T19:25:44;99970.39;;;13.82;90.70
35507;BME280;36461;52.018;21.036;2023-08-31T19:28:13;99973.66;;;13.80;90.86
35507;BME280;36461;52.018;21.036;2023-08-31T19:30:42;99977.42;;;13.77;91.15
35507;BME280;36461;52.018;21.036;2023-08-31T19:33:10;99979.25;;;13.76;91.14
35507;BME280;36461;52.018;21.036;2023-08-31T19:35:38;99978.23;;;13.72;91.11
35507;BME280;36461;52.018;21.036;2023-08-31T19:38:26;99984.38;;;13.67;91.18
35507;BME280;36461;52.018;21.036;2023-08-31T19:40:56;99983.67;;;13.64;91.36
35507;BME280;36461;52.018;21.036;2023-08-31T19:43:24;99986.59;;;13.62;91.47
35507;BME280;36461;52.018;21.036;2023-08-31T19:45:52;99986.56;;;13.58;91.55
35507;BME280;36461;52.018;21.036;2023-08-31T19:48:21;99991.63;;;13.54;91.66
35507;BME280;36461;52.018;21.036;2023-08-31T19:50:50;99990.64;;;13.50;91.49
35507;BME280;36461;52.018;21.036;2023-08-31T19:53:20;99990.73;;;13.45;91.61
35507;BME280;36461;52.018;21.036;2023-08-31T19:55:48;99992.46;;;13.38;91.46
35507;BME280;36461;52.018;21.036;2023-08-31T19:58:16;100001.21;;;13.33;91.69
35507;BME280;36461;52.018;21.036;2023-08-31T20:00:45;99999.55;;;13.28;91.72
35507;BME280;36461;52.018;21.036;2023-08-31T20:03:13;100000.44;;;13.23;92.02
35507;BME280;36461;52.018;21.036;2023-08-31T20:05:41;100005.79;;;13.21;92.13
35507;BME280;36461;52.018;21.036;2023-08-31T20:08:10;100010.29;;;13.17;92.09
35507;BME280;36461;52.018;21.036;2023-08-31T20:10:38;100018.59;;;13.15;92.26
35507;BME280;36461;52.018;21.036;2023-08-31T20:13:06;100022.59;;;13.11;92.34